createdAt,value
2018-06-21T00:01:55.596Z,39.42
2018-06-21T00:04:23.656Z,38.83
2018-06-21T00:06:51.813Z,37.55
2018-06-21T00:09:20.195Z,36.13
2018-06-21T00:11:48.501Z,38.42
2018-06-21T00:14:16.661Z,35.55
2018-06-21T00:16:44.700Z,36.20
2018-06-21T00:19:12.892Z,34.65
2018-06-21T00:21:41.117Z,38.63
2018-06-21T00:24:09.304Z,36.27
2018-06-21T00:26:37.379Z,35.50
2018-06-21T00:29:05.440Z,37.55
2018-06-21T00:31:33.780Z,37.38
2018-06-21T00:34:01.797Z,35.60
2018-06-21T00:36:29.823Z,38.30
2018-06-21T00:38:57.971Z,37.00
2018-06-21T00:41:26.116Z,36.90
2018-06-21T00:43:54.123Z,35.17
2018-06-21T00:46:22.321Z,35.88
2018-06-21T00:48:50.396Z,36.25
2018-06-21T00:51:18.419Z,38.85
2018-06-21T00:53:46.473Z,36.40
2018-06-21T00:56:19.959Z,36.30
2018-06-21T00:58:48.855Z,38.02
2018-06-21T01:01:17.762Z,37.83
2018-06-21T01:03:46.564Z,37.17
2018-06-21T01:06:15.408Z,36.77
2018-06-21T01:08:43.642Z,33.65
2018-06-21T01:11:12.023Z,34.10
2018-06-21T01:13:40.231Z,34.27
2018-06-21T01:16:08.489Z,35.85
2018-06-21T01:18:36.751Z,34.18
2018-06-21T01:21:05.351Z,32.50
2018-06-21T01:23:33.699Z,33.18
2018-06-21T01:26:01.860Z,36.75
2018-06-21T01:28:29.695Z,32.55
2018-06-21T01:30:58.065Z,32.15
2018-06-21T01:33:26.406Z,32.88
2018-06-21T01:35:54.691Z,32.13
2018-06-21T01:38:22.779Z,31.23
2018-06-21T01:40:50.865Z,32.78
2018-06-21T01:43:19.124Z,31.80
2018-06-21T01:45:47.153Z,34.10
2018-06-21T01:48:15.416Z,33.98
2018-06-21T01:50:43.456Z,33.08
2018-06-21T01:53:11.732Z,32.70
2018-06-21T01:55:39.791Z,32.75
2018-06-21T01:58:07.818Z,31.85
2018-06-21T02:00:35.868Z,32.95
2018-06-21T02:03:04.173Z,32.35
2018-06-21T02:05:32.436Z,31.37
2018-06-21T02:08:00.814Z,33.35
2018-06-21T02:10:28.868Z,32.13
2018-06-21T02:12:56.876Z,30.40
2018-06-21T02:15:25.213Z,30.85
2018-06-21T02:17:53.109Z,30.50
2018-06-21T02:20:21.196Z,32.20
2018-06-21T02:22:49.219Z,30.57
2018-06-21T02:25:17.677Z,32.75
2018-06-21T02:27:45.876Z,30.90
2018-06-21T02:30:13.738Z,29.32
2018-06-21T02:32:42.042Z,29.05
2018-06-21T02:35:10.088Z,30.10
2018-06-21T02:37:37.950Z,29.20
2018-06-21T02:40:05.816Z,29.67
2018-06-21T02:42:34.034Z,29.15
2018-06-21T02:45:02.222Z,31.17
2018-06-21T02:47:30.359Z,27.00
2018-06-21T02:49:58.229Z,27.73
2018-06-21T02:52:26.430Z,28.23
2018-06-21T02:54:54.837Z,27.10
2018-06-21T02:57:22.924Z,27.70
2018-06-21T02:59:50.979Z,27.25
2018-06-21T03:02:19.151Z,26.40
2018-06-21T03:04:47.466Z,25.60
2018-06-21T03:07:15.771Z,28.20
2018-06-21T03:09:43.994Z,27.82
2018-06-21T03:12:17.585Z,25.77
2018-06-21T03:14:45.839Z,27.27
2018-06-21T03:17:13.950Z,25.37
2018-06-21T03:19:42.132Z,27.50
2018-06-21T03:22:10.249Z,26.62
2018-06-21T03:24:38.484Z,27.22
2018-06-21T03:27:07.022Z,28.32
2018-06-21T03:29:35.356Z,27.05
2018-06-21T03:32:03.592Z,29.77
2018-06-21T03:34:31.655Z,26.85
2018-06-21T03:37:00.170Z,28.98
2018-06-21T03:39:28.258Z,30.15
2018-06-21T03:41:56.436Z,29.02
2018-06-21T03:44:24.904Z,18.55
2018-06-21T03:46:53.191Z,10.20
2018-06-21T03:49:21.333Z,6.40
2018-06-21T03:51:49.672Z,4.47
2018-06-21T03:54:18.040Z,3.70
2018-06-21T03:56:46.464Z,4.50
2018-06-21T03:59:14.426Z,4.50
2018-06-21T04:01:42.288Z,5.30
2018-06-21T04:04:10.421Z,5.67
2018-06-21T04:06:38.797Z,6.10
2018-06-21T04:09:08.508Z,7.70
2018-06-21T04:11:36.807Z,7.87
2018-06-21T04:14:05.327Z,8.60
2018-06-21T04:16:33.725Z,8.70
2018-06-21T04:19:01.867Z,9.58
2018-06-21T04:21:30.247Z,10.53
2018-06-21T04:23:58.121Z,9.13
2018-06-21T04:26:26.462Z,9.93
2018-06-21T04:28:54.780Z,9.80
2018-06-21T04:31:22.945Z,8.23
2018-06-21T04:33:50.959Z,8.03
2018-06-21T04:36:19.348Z,9.20
2018-06-21T04:38:47.697Z,9.10
2018-06-21T04:41:15.880Z,8.88
2018-06-21T04:43:44.173Z,9.08
2018-06-21T04:46:13.062Z,8.58
2018-06-21T04:48:41.492Z,8.35
2018-06-21T04:51:09.836Z,8.38
2018-06-21T04:53:38.153Z,6.60
2018-06-21T04:56:06.541Z,7.30
2018-06-21T04:58:34.747Z,6.77
2018-06-21T05:01:02.846Z,7.60
2018-06-21T05:03:31.263Z,7.62
2018-06-21T05:05:59.657Z,7.30
2018-06-21T05:08:28.024Z,8.00
2018-06-21T05:10:56.364Z,7.00
2018-06-21T05:13:24.456Z,8.60
2018-06-21T05:15:52.773Z,8.60
2018-06-21T05:18:20.958Z,8.10
2018-06-21T05:20:49.260Z,7.67
2018-06-21T05:23:17.183Z,8.50
2018-06-21T05:25:45.486Z,8.28
2018-06-21T05:28:13.766Z,9.08
2018-06-21T05:30:42.140Z,8.55
2018-06-21T05:33:10.210Z,11.57
2018-06-21T05:35:38.535Z,8.58
2018-06-21T05:38:06.994Z,11.30
2018-06-21T05:40:36.331Z,7.90
2018-06-21T05:43:04.954Z,7.00
2018-06-21T05:45:34.632Z,7.22
2018-06-21T05:48:03.685Z,7.67
2018-06-21T05:50:32.952Z,6.85
2018-06-21T05:53:01.501Z,7.87
2018-06-21T05:55:30.925Z,8.48
2018-06-21T05:57:59.511Z,9.73
2018-06-21T06:00:27.871Z,7.37
2018-06-21T06:02:56.057Z,6.17
2018-06-21T06:05:24.396Z,5.92
2018-06-21T06:07:52.761Z,5.85
2018-06-21T06:10:21.603Z,7.28
2018-06-21T06:12:50.164Z,4.90
2018-06-21T06:15:18.234Z,6.15
2018-06-21T06:17:47.424Z,8.00
2018-06-21T06:20:15.679Z,5.37
2018-06-21T06:22:43.813Z,6.42
2018-06-21T06:25:12.271Z,8.88
2018-06-21T06:27:40.596Z,4.60
2018-06-21T06:30:08.948Z,4.62
2018-06-21T06:32:37.129Z,6.90
2018-06-21T06:35:05.540Z,4.45
2018-06-21T06:37:33.690Z,6.47
2018-06-21T06:40:01.959Z,6.47
2018-06-21T06:42:30.439Z,8.33
2018-06-21T06:44:58.515Z,6.93
2018-06-21T06:47:27.584Z,8.50
2018-06-21T06:49:56.037Z,7.85
2018-06-21T06:52:24.412Z,6.08
2018-06-21T06:54:52.500Z,9.30
2018-06-21T06:57:20.876Z,7.30
2018-06-21T06:59:48.921Z,7.60
2018-06-21T07:02:17.405Z,7.62
2018-06-21T07:04:45.467Z,8.63
2018-06-21T07:07:13.977Z,8.28
2018-06-21T07:09:42.100Z,8.30
2018-06-21T07:12:09.937Z,6.00
2018-06-21T07:14:38.120Z,7.05
2018-06-21T07:17:08.558Z,7.60
2018-06-21T07:19:36.940Z,8.08
2018-06-21T07:22:04.995Z,10.53
2018-06-21T07:24:33.361Z,9.33
2018-06-21T07:27:01.873Z,10.75
2018-06-21T07:29:30.191Z,8.80
2018-06-21T07:31:58.581Z,8.00
2018-06-21T07:34:26.617Z,11.08
2018-06-21T07:36:54.947Z,8.85
2018-06-21T07:39:23.304Z,5.90
2018-06-21T07:41:51.688Z,7.33
2018-06-21T07:44:20.558Z,8.63
2018-06-21T07:46:48.684Z,7.45
2018-06-21T07:49:16.734Z,4.90
2018-06-21T07:51:45.085Z,6.33
2018-06-21T07:54:13.401Z,7.92
2018-06-21T07:56:41.985Z,4.83
2018-06-21T07:59:10.096Z,3.87
2018-06-21T08:01:38.412Z,3.87
2018-06-21T08:04:06.651Z,4.92
2018-06-21T08:06:34.909Z,6.85
2018-06-21T08:09:04.411Z,6.62
2018-06-21T08:11:32.817Z,7.50
2018-06-21T08:14:01.261Z,3.65
2018-06-21T08:16:29.503Z,4.90
2018-06-21T08:18:57.634Z,4.72
2018-06-21T08:21:25.660Z,5.10
2018-06-21T08:23:53.497Z,3.55
2018-06-21T08:26:21.540Z,4.33
2018-06-21T08:28:49.597Z,4.60
2018-06-21T08:31:17.655Z,5.43
2018-06-21T08:33:45.991Z,4.60
2018-06-21T08:36:14.034Z,6.15
2018-06-21T08:38:42.102Z,5.65
2018-06-21T08:41:10.116Z,4.95
2018-06-21T08:43:38.259Z,3.90
2018-06-21T08:46:06.467Z,5.25
2018-06-21T08:48:34.510Z,5.20
2018-06-21T08:51:02.655Z,7.05
2018-06-21T08:53:30.675Z,3.70
2018-06-21T08:55:58.708Z,4.78
2018-06-21T08:58:26.773Z,4.40
2018-06-21T09:00:54.786Z,3.97
2018-06-21T09:03:23.176Z,3.90
2018-06-21T09:05:51.216Z,2.90
2018-06-21T09:08:19.268Z,3.75
2018-06-21T09:10:47.317Z,5.17
2018-06-21T09:13:15.361Z,2.77
2018-06-21T09:15:43.191Z,5.10
2018-06-21T09:18:11.223Z,4.30
2018-06-21T09:20:39.263Z,3.50
2018-06-21T09:23:07.107Z,6.00
2018-06-21T09:25:35.161Z,2.87
2018-06-21T09:28:03.233Z,2.87
2018-06-21T09:30:31.238Z,4.70
2018-06-21T09:32:59.303Z,3.00
2018-06-21T09:35:27.362Z,2.37
2018-06-21T09:38:00.972Z,5.23
2018-06-21T09:40:34.603Z,3.27
2018-06-21T09:43:08.204Z,3.77
2018-06-21T09:45:41.738Z,3.70
2018-06-21T09:48:15.291Z,3.40
2018-06-21T09:50:43.334Z,2.90
2018-06-21T09:53:11.356Z,4.78
2018-06-21T09:55:39.404Z,4.62
2018-06-21T09:58:07.449Z,3.10
2018-06-21T10:00:41.071Z,5.03
2018-06-21T10:03:09.103Z,4.12
2018-06-21T10:05:37.153Z,5.65
2018-06-21T10:08:05.228Z,3.27
2018-06-21T10:10:33.264Z,3.45
2018-06-21T10:13:01.308Z,6.23
2018-06-21T10:15:29.329Z,2.30
2018-06-21T10:17:59.267Z,7.80
2018-06-21T10:20:27.498Z,2.20
2018-06-21T10:22:55.725Z,1.50
2018-06-21T10:25:24.005Z,2.60
2018-06-21T10:27:52.056Z,2.40
2018-06-21T10:30:20.327Z,2.70
2018-06-21T10:32:48.402Z,5.53
2018-06-21T10:35:16.441Z,2.92
2018-06-21T10:37:44.657Z,2.60
2018-06-21T10:40:12.707Z,5.70
2018-06-21T10:42:40.848Z,2.60
2018-06-21T10:45:09.110Z,4.20
2018-06-21T10:47:36.995Z,4.30
2018-06-21T10:50:05.156Z,3.60
2018-06-21T10:52:33.220Z,4.33
2018-06-21T10:55:01.254Z,3.37
2018-06-21T10:57:29.288Z,4.20
2018-06-21T10:59:57.327Z,4.05
2018-06-21T11:02:25.340Z,3.70
2018-06-21T11:04:53.369Z,3.70
2018-06-21T11:07:21.390Z,2.90
2018-06-21T11:09:49.412Z,3.98
2018-06-21T11:12:17.435Z,4.53
2018-06-21T11:14:45.492Z,4.25
2018-06-21T11:17:13.499Z,2.70
2018-06-21T11:19:41.335Z,4.05
2018-06-21T11:22:09.504Z,3.50
2018-06-21T11:24:37.549Z,3.83
2018-06-21T11:27:05.592Z,5.28
2018-06-21T11:29:33.428Z,5.90
2018-06-21T11:32:01.448Z,5.70
2018-06-21T11:34:29.471Z,5.00
2018-06-21T11:36:57.487Z,3.55
2018-06-21T11:39:25.522Z,3.17
2018-06-21T11:41:53.548Z,5.42
2018-06-21T11:44:21.560Z,4.25
2018-06-21T11:46:49.622Z,2.40
2018-06-21T11:49:17.575Z,3.02
2018-06-21T11:51:45.606Z,3.40
2018-06-21T11:54:13.631Z,3.40
2018-06-21T11:56:41.664Z,3.02
2018-06-21T11:59:09.690Z,3.30
2018-06-21T12:01:37.719Z,4.22
2018-06-21T12:04:05.820Z,3.00
2018-06-21T12:06:33.832Z,4.27
2018-06-21T12:09:01.849Z,4.40
2018-06-21T12:11:29.876Z,3.75
2018-06-21T12:13:57.904Z,3.70
2018-06-21T12:16:25.752Z,3.90
2018-06-21T12:18:53.775Z,3.10
2018-06-21T12:21:21.800Z,3.30
2018-06-21T12:23:49.832Z,1.50
2018-06-21T12:26:17.847Z,3.50
2018-06-21T12:28:45.873Z,3.05
2018-06-21T12:31:13.886Z,3.10
2018-06-21T12:33:42.026Z,2.67
2018-06-21T12:36:10.052Z,3.05
2018-06-21T12:38:38.092Z,2.60
2018-06-21T12:41:05.918Z,1.55
2018-06-21T12:43:33.983Z,2.60
2018-06-21T12:46:02.047Z,2.00
2018-06-21T12:48:30.044Z,1.85
2018-06-21T12:50:58.047Z,2.87
2018-06-21T12:53:25.872Z,2.10
2018-06-21T12:55:53.884Z,4.10
2018-06-21T12:58:21.919Z,2.17
2018-06-21T13:00:50.032Z,3.08
2018-06-21T13:03:18.075Z,2.00
2018-06-21T13:05:46.084Z,2.00
2018-06-21T13:08:24.345Z,3.22
2018-06-21T13:11:03.976Z,1.50
2018-06-21T13:13:31.990Z,2.47
2018-06-21T13:16:00.061Z,3.10
2018-06-21T13:18:28.097Z,2.70
2018-06-21T13:20:56.179Z,1.60
2018-06-21T13:23:24.200Z,2.42
2018-06-21T13:25:52.212Z,1.50
2018-06-21T13:28:20.215Z,1.52
2018-06-21T13:30:48.428Z,2.08
2018-06-21T13:33:16.432Z,1.10
2018-06-21T13:35:44.547Z,2.20
2018-06-21T13:38:12.620Z,2.25
2018-06-21T13:40:40.620Z,1.30
2018-06-21T13:43:08.707Z,2.40
2018-06-21T13:45:36.997Z,2.80
2018-06-21T13:48:04.824Z,2.20
2018-06-21T13:50:32.905Z,2.45
2018-06-21T13:53:01.051Z,1.75
2018-06-21T13:55:29.046Z,3.30
2018-06-21T13:57:57.100Z,2.77
2018-06-21T14:00:25.130Z,1.40
2018-06-21T14:02:53.153Z,1.35
2018-06-21T14:05:21.164Z,1.50
2018-06-21T14:07:49.311Z,1.50
2018-06-21T14:10:17.098Z,2.13
2018-06-21T14:12:44.923Z,2.05
2018-06-21T14:15:12.928Z,1.57
2018-06-21T14:17:40.970Z,0.80
2018-06-21T14:20:09.009Z,1.30
2018-06-21T14:22:37.016Z,1.20
2018-06-21T14:25:05.459Z,2.75
2018-06-21T14:27:33.522Z,3.20
2018-06-21T14:30:01.634Z,1.75
2018-06-21T14:32:29.891Z,1.30
2018-06-21T14:34:57.995Z,0.80
2018-06-21T14:37:26.102Z,1.60
2018-06-21T14:39:54.142Z,2.00
2018-06-21T14:42:22.341Z,1.52
2018-06-21T14:44:50.434Z,1.23
2018-06-21T14:47:18.500Z,1.55
2018-06-21T14:49:46.563Z,1.00
2018-06-21T14:52:14.728Z,0.98
2018-06-21T14:54:42.824Z,1.60
2018-06-21T14:57:10.933Z,1.50
2018-06-21T14:59:38.952Z,1.90
2018-06-21T15:02:06.987Z,1.07
2018-06-21T15:04:34.854Z,2.47
2018-06-21T15:07:02.862Z,2.77
2018-06-21T15:09:30.993Z,2.75
2018-06-21T15:11:59.123Z,1.20
2018-06-21T15:14:27.172Z,2.60
2018-06-21T15:16:55.203Z,1.20
2018-06-21T15:19:23.232Z,1.00
2018-06-21T15:21:51.269Z,2.00
2018-06-21T15:24:19.305Z,2.10
2018-06-21T15:26:47.357Z,1.10
2018-06-21T15:29:15.496Z,1.87
2018-06-21T15:31:43.531Z,1.60
2018-06-21T15:34:11.616Z,1.87
2018-06-21T15:36:39.645Z,2.37
2018-06-21T15:39:18.023Z,2.50
2018-06-21T15:41:46.044Z,1.30
2018-06-21T15:44:14.113Z,2.08
2018-06-21T15:46:42.501Z,1.00
2018-06-21T15:49:10.625Z,2.52
2018-06-21T15:51:39.197Z,1.00
2018-06-21T15:54:07.594Z,2.35
2018-06-21T15:56:35.656Z,2.60
2018-06-21T15:59:03.745Z,3.22
2018-06-21T16:01:31.730Z,2.00
2018-06-21T16:03:59.776Z,2.35
2018-06-21T16:06:27.919Z,2.27
2018-06-21T16:08:55.996Z,1.67
2018-06-21T16:11:24.052Z,3.62
2018-06-21T16:13:52.113Z,1.60
2018-06-21T16:16:20.145Z,3.20
2018-06-21T16:18:48.213Z,2.50
2018-06-21T16:21:16.220Z,3.37
2018-06-21T16:23:44.265Z,3.22
2018-06-21T16:26:12.276Z,2.50
2018-06-21T16:28:40.324Z,4.00
2018-06-21T16:31:08.167Z,4.75
2018-06-21T16:33:36.210Z,3.90
2018-06-21T16:36:04.497Z,3.50
2018-06-21T16:38:32.533Z,2.90
2018-06-21T16:41:00.647Z,4.12
2018-06-21T16:43:28.447Z,3.30
2018-06-21T16:45:56.332Z,3.92
2018-06-21T16:48:24.368Z,2.95
2018-06-21T16:50:52.279Z,1.80
2018-06-21T16:53:20.456Z,3.80
2018-06-21T16:55:48.498Z,3.27
2018-06-21T16:58:16.584Z,2.87
2018-06-21T17:00:45.042Z,2.30
2018-06-21T17:03:13.334Z,2.62
2018-06-21T17:05:41.437Z,3.55
2018-06-21T17:08:09.527Z,3.10
2018-06-21T17:10:37.705Z,3.72
2018-06-21T17:13:05.828Z,3.50
2018-06-21T17:15:33.931Z,3.52
2018-06-21T17:18:01.973Z,3.40
2018-06-21T17:20:29.985Z,2.87
2018-06-21T17:22:58.037Z,3.85
2018-06-21T17:25:26.111Z,3.15
2018-06-21T17:27:54.140Z,4.20
2018-06-21T17:30:22.217Z,3.65
2018-06-21T17:32:50.319Z,4.00
2018-06-21T17:35:18.344Z,5.67
2018-06-21T17:37:46.418Z,3.60
2018-06-21T17:40:14.533Z,3.87
2018-06-21T17:42:42.574Z,4.87
2018-06-21T17:45:10.619Z,7.30
2018-06-21T17:47:38.739Z,4.57
2018-06-21T17:50:06.801Z,4.30
2018-06-21T17:52:34.840Z,3.45
2018-06-21T17:55:03.072Z,4.63
2018-06-21T17:57:31.124Z,4.25
2018-06-21T17:59:59.160Z,5.10
2018-06-21T18:02:27.176Z,4.85
2018-06-21T18:04:55.224Z,4.10
2018-06-21T18:07:23.440Z,4.22
2018-06-21T18:09:51.460Z,7.17
2018-06-21T18:12:19.496Z,4.45
2018-06-21T18:14:47.536Z,3.40
2018-06-21T18:17:15.564Z,5.37
2018-06-21T18:19:43.813Z,7.45
2018-06-21T18:22:11.733Z,4.90
2018-06-21T18:24:39.804Z,3.00
2018-06-21T18:27:07.851Z,5.00
2018-06-21T18:29:35.889Z,5.53
2018-06-21T18:32:03.908Z,3.58
2018-06-21T18:34:31.962Z,4.03
2018-06-21T18:36:59.977Z,4.60
2018-06-21T18:39:28.018Z,5.17
2018-06-21T18:41:56.046Z,5.12
2018-06-21T18:44:24.184Z,4.30
2018-06-21T18:46:52.224Z,3.20
2018-06-21T18:49:20.339Z,5.13
2018-06-21T18:51:48.423Z,5.17
2018-06-21T18:54:16.459Z,3.90
2018-06-21T18:56:44.481Z,4.00
2018-06-21T18:59:12.540Z,3.15
2018-06-21T19:01:40.592Z,4.33
2018-06-21T19:04:08.519Z,5.62
2018-06-21T19:06:41.975Z,5.10
2018-06-21T19:09:15.391Z,3.08
2018-06-21T19:11:48.887Z,3.45
2018-06-21T19:14:16.928Z,3.00
2018-06-21T19:16:44.979Z,4.60
2018-06-21T19:19:13.019Z,5.83
2018-06-21T19:21:41.043Z,4.60
2018-06-21T19:24:09.084Z,7.03
2018-06-21T19:26:37.141Z,7.30
2018-06-21T19:29:05.189Z,5.90
2018-06-21T19:31:33.940Z,6.37
2018-06-21T19:34:01.977Z,7.60
2018-06-21T19:36:30.055Z,5.50
2018-06-21T19:38:58.004Z,4.47
2018-06-21T19:41:26.038Z,5.92
2018-06-21T19:43:54.060Z,5.17
2018-06-21T19:46:22.077Z,7.33
2018-06-21T19:48:50.095Z,8.30
2018-06-21T19:51:18.164Z,6.70
2018-06-21T19:53:46.184Z,4.67
2018-06-21T19:56:14.223Z,6.45
2018-06-21T19:58:42.282Z,7.20
2018-06-21T20:01:10.307Z,7.20
2018-06-21T20:03:38.455Z,5.35
2018-06-21T20:06:06.460Z,5.70
2018-06-21T20:08:34.488Z,5.17
2018-06-21T20:11:07.824Z,6.60
2018-06-21T20:13:42.696Z,4.65
2018-06-21T20:16:10.724Z,6.08
2018-06-21T20:18:38.821Z,4.28
2018-06-21T20:21:12.002Z,4.70
2018-06-21T20:23:41.008Z,3.45
2018-06-21T20:26:09.478Z,4.53
2018-06-21T20:28:37.515Z,5.47
2018-06-21T20:31:05.728Z,4.15
2018-06-21T20:33:33.740Z,3.27
2018-06-21T20:36:01.781Z,4.53
2018-06-21T20:38:29.807Z,7.10
2018-06-21T20:40:57.807Z,5.65
2018-06-21T20:43:25.824Z,5.78
2018-06-21T20:45:53.851Z,6.65
2018-06-21T20:48:21.884Z,5.70
2018-06-21T20:50:49.900Z,7.25
2018-06-21T20:53:17.958Z,7.17
2018-06-21T20:55:45.971Z,5.33
2018-06-21T20:58:13.980Z,7.80
2018-06-21T21:00:42.176Z,7.00
2018-06-21T21:03:10.421Z,8.95
2018-06-21T21:05:38.456Z,9.38
2018-06-21T21:08:06.485Z,10.13
2018-06-21T21:10:34.512Z,8.35
2018-06-21T21:13:02.551Z,5.60
2018-06-21T21:15:30.578Z,9.87
2018-06-21T21:17:58.621Z,9.03
2018-06-21T21:20:26.659Z,5.47
2018-06-21T21:22:54.487Z,5.50
2018-06-21T21:25:22.504Z,9.35
2018-06-21T21:27:50.373Z,7.83
2018-06-21T21:30:18.459Z,8.40
2018-06-21T21:32:46.472Z,10.00
2018-06-21T21:35:14.534Z,7.67
2018-06-21T21:37:42.512Z,6.83
2018-06-21T21:40:10.552Z,7.28
2018-06-21T21:42:39.171Z,7.45
2018-06-21T21:45:07.431Z,9.68
2018-06-21T21:47:35.465Z,10.65
2018-06-21T21:50:03.670Z,7.95
2018-06-21T21:52:31.689Z,5.05
2018-06-21T21:54:59.507Z,4.78
2018-06-21T21:57:27.534Z,7.57
2018-06-21T21:59:55.646Z,8.43
2018-06-21T22:02:23.648Z,5.67
2018-06-21T22:04:51.648Z,6.45
2018-06-21T22:07:19.677Z,6.65
2018-06-21T22:09:47.684Z,5.22
2018-06-21T22:12:15.692Z,8.70
2018-06-21T22:14:43.730Z,5.15
2018-06-21T22:17:11.744Z,7.37
2018-06-21T22:19:39.801Z,8.28
2018-06-21T22:22:07.816Z,9.65
2018-06-21T22:24:35.819Z,9.08
2018-06-21T22:27:03.840Z,7.92
2018-06-21T22:29:31.896Z,7.20
2018-06-21T22:32:00.056Z,8.38
2018-06-21T22:34:28.074Z,7.63
2018-06-21T22:36:56.087Z,8.63
2018-06-21T22:39:24.088Z,7.85
2018-06-21T22:41:52.104Z,9.10
2018-06-21T22:44:20.128Z,7.87
2018-06-21T22:46:48.129Z,8.05
2018-06-21T22:49:15.934Z,6.45
2018-06-21T22:51:43.957Z,6.67
2018-06-21T22:54:11.976Z,8.63
2018-06-21T22:56:39.980Z,5.87
2018-06-21T22:59:07.813Z,9.78
2018-06-21T23:01:35.815Z,8.05
2018-06-21T23:04:03.827Z,5.65
2018-06-21T23:06:31.856Z,7.22
2018-06-21T23:08:59.663Z,4.50
2018-06-21T23:11:27.684Z,6.35
2018-06-21T23:13:55.508Z,4.90
2018-06-21T23:16:23.533Z,6.20
2018-06-21T23:19:03.032Z,5.15
2018-06-21T23:21:31.056Z,6.30
2018-06-21T23:23:59.099Z,5.25
2018-06-21T23:26:27.132Z,7.47
2018-06-21T23:28:55.128Z,7.08
2018-06-21T23:31:23.171Z,6.42
2018-06-21T23:33:51.176Z,4.20
2018-06-21T23:36:19.225Z,5.40
2018-06-21T23:38:47.231Z,6.83
2018-06-21T23:41:15.255Z,5.33
2018-06-21T23:43:43.327Z,6.28
2018-06-21T23:46:11.380Z,5.77
2018-06-21T23:48:39.387Z,8.35
2018-06-21T23:51:07.413Z,5.95
2018-06-21T23:53:35.415Z,5.92
2018-06-21T23:56:03.461Z,5.70
2018-06-21T23:58:31.468Z,4.65
